createdAt,value
2022-11-16T00:02:17.525Z,18.13
2022-11-16T00:04:44.299Z,20.77
2022-11-16T00:07:11.321Z,17.58
2022-11-16T00:09:37.931Z,16.83
2022-11-16T00:12:06.916Z,19.73
2022-11-16T00:14:36.102Z,17.65
2022-11-16T00:17:03.538Z,18.52
2022-11-16T00:19:30.583Z,16.42
2022-11-16T00:21:57.834Z,19.42
2022-11-16T00:24:24.623Z,16.75
2022-11-16T00:26:54.343Z,17.40
2022-11-16T00:29:24.459Z,16.02
2022-11-16T00:31:52.068Z,18.15
2022-11-16T00:34:19.150Z,16.88
2022-11-16T00:36:46.464Z,16.05
2022-11-16T00:39:14.929Z,13.90
2022-11-16T00:41:42.733Z,15.93
2022-11-16T00:44:10.127Z,15.68
2022-11-16T00:46:36.756Z,16.13
2022-11-16T00:49:03.882Z,16.20
2022-11-16T00:51:30.439Z,16.48
2022-11-16T00:53:57.043Z,15.43
2022-11-16T00:56:23.782Z,14.13
2022-11-16T00:58:50.417Z,16.27
2022-11-16T01:01:17.113Z,15.23
2022-11-16T01:03:43.823Z,19.50
2022-11-16T01:06:13.740Z,18.23
2022-11-16T01:08:41.906Z,16.88
2022-11-16T01:11:27.579Z,17.88
2022-11-16T01:13:55.077Z,16.48
2022-11-16T01:16:23.583Z,17.65
2022-11-16T01:18:52.760Z,16.05
2022-11-16T01:21:20.151Z,17.58
2022-11-16T01:23:46.866Z,17.45
2022-11-16T01:26:13.846Z,19.90
2022-11-16T01:28:40.398Z,17.75
2022-11-16T01:31:08.202Z,17.42
2022-11-16T01:33:35.104Z,18.02
2022-11-16T01:36:01.655Z,17.67
2022-11-16T01:38:29.944Z,17.95
2022-11-16T01:40:56.904Z,17.55
2022-11-16T01:43:27.056Z,19.65
2022-11-16T01:45:53.902Z,16.38
2022-11-16T01:48:27.855Z,19.48
2022-11-16T01:50:57.533Z,16.35
2022-11-16T01:53:24.939Z,18.15
2022-11-16T01:55:52.508Z,17.63
2022-11-16T01:58:23.109Z,19.33
2022-11-16T02:00:49.875Z,19.02
2022-11-16T02:03:20.826Z,17.15
2022-11-16T02:09:37.705Z,18.48
2022-11-16T02:12:19.150Z,19.13
2022-11-16T02:14:51.601Z,18.13
2022-11-16T02:17:51.373Z,17.33
2022-11-16T02:20:21.283Z,17.13
2022-11-16T02:23:16.831Z,17.13
2022-11-16T02:26:02.012Z,19.00
2022-11-16T02:28:46.632Z,15.80
2022-11-16T02:31:18.726Z,20.02
2022-11-16T02:33:48.696Z,16.33
2022-11-16T02:36:20.478Z,17.50
2022-11-16T02:38:54.977Z,19.10
2022-11-16T02:41:25.320Z,18.77
2022-11-16T02:44:05.693Z,16.70
2022-11-16T02:46:37.935Z,18.05
2022-11-16T02:49:09.626Z,17.42
2022-11-16T02:51:37.601Z,20.67
2022-11-16T02:54:09.238Z,17.30
2022-11-16T02:56:43.333Z,18.77
2022-11-16T02:59:14.072Z,17.85
2022-11-16T03:01:51.594Z,19.85
2022-11-16T03:04:25.437Z,21.47
2022-11-16T03:06:54.912Z,20.00
2022-11-16T03:09:34.181Z,19.90
2022-11-16T03:12:05.352Z,21.63
2022-11-16T03:14:43.560Z,19.40
2022-11-16T03:17:20.239Z,19.23
2022-11-16T03:20:04.562Z,21.15
2022-11-16T03:22:46.929Z,22.00
2022-11-16T03:25:19.134Z,19.25
2022-11-16T03:27:53.910Z,20.05
2022-11-16T03:30:24.164Z,21.83
2022-11-16T03:33:09.544Z,21.60
2022-11-16T03:35:43.782Z,22.63
2022-11-16T03:38:12.329Z,22.40
2022-11-16T03:40:40.140Z,25.05
2022-11-16T03:43:08.471Z,23.48
2022-11-16T03:45:36.856Z,21.38
2022-11-16T03:48:03.773Z,23.33
2022-11-16T03:50:30.289Z,24.50
2022-11-16T03:52:56.805Z,23.98
2022-11-16T03:55:23.402Z,23.73
2022-11-16T03:57:49.982Z,21.75
2022-11-16T04:00:16.616Z,26.40
2022-11-16T04:02:43.179Z,23.17
2022-11-16T04:05:28.771Z,22.65
2022-11-16T04:08:13.860Z,22.50
2022-11-16T04:10:59.257Z,22.27
2022-11-16T04:13:48.013Z,21.67
2022-11-16T04:16:33.397Z,23.50
2022-11-16T04:19:18.747Z,27.70
2022-11-16T04:22:10.625Z,25.10
2022-11-16T04:24:40.213Z,26.52
2022-11-16T04:27:30.047Z,25.73
2022-11-16T04:29:59.343Z,24.63
2022-11-16T04:32:44.750Z,26.65
2022-11-16T04:35:30.128Z,28.02
2022-11-16T04:37:58.619Z,25.10
2022-11-16T04:40:29.450Z,24.65
2022-11-16T04:42:58.593Z,25.38
2022-11-16T04:45:44.740Z,30.08
2022-11-16T04:48:12.516Z,28.73
2022-11-16T04:50:39.864Z,26.20
2022-11-16T04:53:07.664Z,28.63
2022-11-16T04:55:34.293Z,28.60
2022-11-16T04:58:01.140Z,25.27
2022-11-16T05:00:28.568Z,28.38
2022-11-16T05:03:00.797Z,33.40
2022-11-16T05:05:27.736Z,28.50
2022-11-16T05:07:54.273Z,31.85
2022-11-16T05:10:20.840Z,26.58
2022-11-16T05:12:47.428Z,31.05
2022-11-16T05:15:13.992Z,31.92
2022-11-16T05:17:40.624Z,30.75
2022-11-16T05:20:26.219Z,37.03
2022-11-16T05:22:54.893Z,30.33
2022-11-16T05:25:21.870Z,32.40
2022-11-16T05:27:48.555Z,32.90
2022-11-16T05:30:15.231Z,31.80
2022-11-16T05:32:41.882Z,32.05
2022-11-16T23:04:12.973Z,2.03
2022-11-16T23:06:39.598Z,2.00
2022-11-16T23:09:06.282Z,2.83
2022-11-16T23:11:51.377Z,2.53
2022-11-16T23:14:36.744Z,2.60
2022-11-16T23:17:03.965Z,2.50
2022-11-16T23:19:48.981Z,2.10
2022-11-16T23:22:37.812Z,2.63
2022-11-16T23:25:25.331Z,2.65
2022-11-16T23:28:05.937Z,2.17
2022-11-16T23:30:33.632Z,2.75
2022-11-16T23:33:00.772Z,2.67
2022-11-16T23:35:27.381Z,2.67
2022-11-16T23:38:01.963Z,2.65
2022-11-16T23:40:31.634Z,2.90
2022-11-16T23:43:17.161Z,2.50
2022-11-16T23:45:44.574Z,2.90
2022-11-16T23:48:13.854Z,3.72
2022-11-16T23:50:40.462Z,3.00
2022-11-16T23:53:09.027Z,3.47
2022-11-16T23:55:40.717Z,3.75
2022-11-16T23:58:12.318Z,2.85
